createdAt,value
2022-08-01T00:01:35.849Z,19.33
2022-08-01T00:04:10.080Z,18.10
2022-08-01T00:06:46.227Z,17.73
2022-08-01T00:09:24.252Z,18.10
2022-08-01T00:12:00.076Z,18.02
2022-08-01T00:14:35.735Z,17.92
2022-08-01T00:17:09.409Z,17.70
2022-08-01T00:19:44.516Z,17.02
2022-08-01T00:22:20.626Z,17.88
2022-08-01T00:24:54.551Z,17.02
2022-08-01T00:27:28.240Z,18.10
2022-08-01T00:30:12.382Z,18.20
2022-08-01T00:32:49.179Z,17.75
2022-08-01T00:35:23.140Z,19.00
2022-08-01T00:38:18.528Z,18.60
2022-08-01T00:40:52.687Z,18.75
2022-08-01T00:43:26.439Z,18.27
2022-08-01T00:46:00.403Z,18.23
2022-08-01T00:48:34.762Z,19.77
2022-08-01T00:51:17.482Z,18.52
2022-08-01T00:53:53.547Z,19.45
2022-08-01T00:56:30.685Z,19.65
2022-08-01T00:59:04.552Z,20.60
2022-08-01T01:01:39.574Z,20.65
2022-08-01T01:04:13.531Z,21.13
2022-08-01T01:06:56.270Z,22.67
2022-08-01T01:09:43.431Z,22.80
2022-08-01T01:12:25.991Z,24.45
2022-08-01T01:15:06.695Z,24.48
2022-08-01T01:17:51.010Z,24.98
2022-08-01T01:20:29.693Z,25.10
2022-08-01T01:23:37.554Z,23.85
2022-08-01T01:26:27.129Z,24.80
2022-08-01T01:29:18.141Z,23.33
2022-08-01T01:31:57.021Z,23.48
2022-08-01T01:34:33.176Z,23.42
2022-08-01T01:37:09.581Z,23.52
2022-08-01T01:39:45.491Z,22.30
2022-08-01T01:42:30.569Z,20.75
2022-08-01T01:45:08.359Z,19.63
2022-08-01T01:47:43.555Z,18.85
2022-08-01T01:50:18.773Z,17.92
2022-08-01T01:52:54.192Z,17.90
2022-08-01T01:55:28.919Z,17.13
2022-08-01T01:58:03.795Z,17.85
2022-08-01T02:00:54.510Z,18.05
2022-08-01T02:03:29.753Z,17.50
2022-08-01T02:06:03.992Z,16.17
2022-08-01T02:08:40.353Z,16.17
2022-08-01T02:11:31.731Z,15.45
2022-08-01T02:14:07.584Z,15.85
2022-08-01T02:16:46.863Z,14.43
2022-08-01T02:19:22.909Z,14.90
2022-08-01T02:22:03.350Z,14.98
2022-08-01T02:24:45.656Z,14.27
2022-08-01T02:27:22.024Z,13.82
2022-08-01T02:30:02.172Z,14.70
2022-08-01T02:32:44.292Z,13.88
2022-08-01T02:35:25.073Z,14.93
2022-08-01T02:38:00.119Z,14.77
2022-08-01T02:40:37.298Z,14.48
2022-08-01T02:43:13.129Z,13.45
2022-08-01T02:45:50.612Z,13.18
2022-08-01T02:48:28.386Z,11.57
2022-08-01T02:51:05.414Z,11.70
2022-08-01T02:53:44.655Z,11.80
2022-08-01T02:56:20.356Z,10.80
2022-08-01T02:58:54.890Z,10.80
2022-08-01T03:01:30.543Z,11.07
2022-08-01T03:04:09.189Z,11.65
2022-08-01T03:06:45.014Z,11.45
2022-08-01T03:09:19.866Z,11.05
2022-08-01T03:11:54.909Z,10.80
2022-08-01T03:14:32.775Z,11.57
2022-08-01T03:17:08.652Z,11.07
2022-08-01T03:19:49.649Z,12.38
2022-08-01T03:22:28.384Z,12.02
2022-08-01T03:25:03.978Z,11.73
2022-08-01T03:27:37.526Z,11.80
2022-08-01T03:30:12.659Z,11.63
2022-08-01T03:32:47.152Z,11.95
2022-08-01T03:38:16.225Z,11.85
2022-08-01T03:40:54.410Z,11.50
2022-08-01T03:43:40.755Z,11.95
2022-08-01T03:46:18.607Z,11.55
2022-08-01T03:48:55.776Z,11.60
2022-08-01T03:51:34.531Z,11.23
2022-08-01T03:54:08.909Z,11.55
2022-08-01T03:56:43.436Z,11.35
2022-08-01T03:59:26.889Z,12.13
2022-08-01T04:02:03.126Z,11.35
2022-08-01T04:04:37.570Z,12.02
2022-08-01T04:07:28.673Z,11.25
2022-08-01T04:10:02.073Z,11.25
2022-08-01T04:12:36.358Z,11.05
2022-08-01T04:15:11.052Z,10.70
2022-08-01T04:17:44.957Z,10.38
2022-08-01T04:20:19.365Z,10.95
2022-08-01T04:22:55.280Z,10.75
2022-08-01T04:25:34.802Z,11.00
2022-08-01T04:28:13.521Z,10.45
2022-08-01T04:30:48.521Z,11.07
2022-08-01T04:33:24.514Z,10.30
2022-08-01T04:36:03.672Z,11.52
2022-08-01T04:38:41.544Z,11.30
2022-08-01T04:41:17.355Z,11.07
2022-08-01T04:43:50.331Z,10.93
2022-08-01T04:46:23.944Z,11.75
2022-08-01T04:48:59.149Z,10.95
2022-08-01T04:51:32.957Z,10.63
2022-08-01T04:54:12.735Z,10.85
2022-08-01T04:59:45.070Z,11.02
2022-08-01T05:02:20.700Z,11.23
2022-08-01T05:04:55.294Z,12.35
2022-08-01T05:07:29.251Z,11.88
2022-08-01T05:10:05.707Z,12.90
2022-08-01T05:12:40.113Z,12.48
2022-08-01T05:15:15.612Z,12.75
2022-08-01T05:17:49.020Z,11.95
2022-08-01T05:20:22.515Z,13.18
2022-08-01T05:22:55.548Z,12.23
2022-08-01T05:25:57.438Z,12.25
2022-08-01T05:28:33.537Z,12.80
2022-08-01T05:31:09.099Z,12.18
2022-08-01T05:33:43.937Z,11.65
2022-08-01T05:36:20.422Z,11.80
2022-08-01T05:38:54.499Z,11.57
2022-08-01T05:41:30.798Z,11.05
2022-08-01T05:44:04.997Z,10.93
2022-08-01T05:46:40.527Z,10.25
2022-08-01T05:49:14.735Z,10.95
2022-08-01T05:51:48.542Z,10.90
2022-08-01T05:54:25.002Z,11.40
2022-08-01T05:57:06.305Z,11.07
2022-08-01T05:59:40.392Z,11.43
2022-08-01T06:02:13.962Z,12.07
2022-08-01T06:04:47.439Z,12.30
2022-08-01T06:07:21.655Z,12.18
2022-08-01T06:09:55.311Z,12.68
2022-08-01T06:12:38.907Z,11.98
2022-08-01T06:15:13.837Z,11.52
2022-08-01T06:17:47.649Z,11.65
2022-08-01T06:20:21.332Z,12.45
2022-08-01T06:22:55.213Z,12.23
2022-08-01T06:25:30.310Z,12.85
2022-08-01T06:28:06.187Z,13.23
2022-08-01T06:30:39.830Z,12.63
2022-08-01T06:33:13.516Z,13.00
2022-08-01T06:35:47.924Z,11.65
2022-08-01T06:41:09.548Z,9.40
2022-08-01T06:43:45.779Z,10.57
2022-08-01T06:46:19.995Z,9.77
2022-08-01T06:48:57.419Z,10.32
2022-08-01T06:51:33.291Z,10.20
2022-08-01T06:54:07.371Z,10.30
2022-08-01T06:56:41.318Z,9.70
2022-08-01T06:59:30.334Z,9.90
2022-08-01T07:02:04.815Z,10.63
2022-08-01T07:04:39.378Z,10.25
2022-08-01T07:07:13.715Z,11.18
2022-08-01T07:09:46.999Z,11.82
2022-08-01T07:12:20.749Z,11.63
2022-08-01T07:14:56.626Z,12.57
2022-08-01T07:17:30.268Z,12.85
2022-08-01T07:20:04.733Z,14.70
2022-08-01T07:22:39.203Z,15.18
2022-08-01T07:25:17.855Z,15.68
2022-08-01T07:27:51.338Z,15.07
2022-08-01T07:30:26.838Z,16.00
2022-08-01T07:33:00.801Z,15.98
2022-08-01T07:35:34.687Z,15.15
2022-08-01T07:38:12.580Z,14.70
2022-08-01T07:40:47.946Z,14.82
2022-08-01T07:43:21.597Z,14.82
2022-08-01T07:45:57.100Z,14.90
2022-08-01T07:48:31.237Z,15.05
2022-08-01T07:51:11.228Z,13.63
2022-08-01T07:53:45.414Z,14.45
2022-08-01T07:56:19.725Z,15.23
2022-08-01T07:58:53.638Z,15.43
2022-08-01T08:01:29.083Z,14.93
2022-08-01T08:04:04.414Z,14.75
2022-08-01T08:06:38.685Z,16.02
2022-08-01T08:09:12.540Z,16.08
2022-08-01T08:11:48.321Z,16.63
2022-08-01T08:17:13.713Z,16.85
2022-08-01T08:19:47.083Z,17.10
2022-08-01T08:22:20.524Z,16.55
2022-08-01T08:24:54.190Z,16.45
2022-08-01T08:27:35.444Z,17.27
2022-08-01T08:30:14.863Z,17.25
2022-08-01T08:32:50.732Z,16.85
2022-08-01T08:35:40.448Z,15.95
2022-08-01T08:38:17.523Z,16.83
2022-08-01T08:40:52.529Z,16.60
2022-08-01T08:43:27.184Z,16.27
2022-08-01T08:46:01.401Z,16.55
2022-08-01T08:48:37.806Z,15.93
2022-08-01T08:51:13.135Z,15.43
2022-08-01T08:53:48.620Z,16.02
2022-08-01T08:56:23.255Z,16.45
2022-08-01T08:58:57.602Z,17.42
2022-08-01T09:01:31.725Z,17.90
2022-08-01T09:04:08.601Z,17.65
2022-08-01T09:06:45.445Z,18.33
2022-08-01T09:09:18.873Z,22.00
2022-08-01T09:12:07.255Z,18.30
2022-08-01T09:14:52.187Z,17.30
2022-08-01T09:17:26.340Z,17.50
2022-08-01T09:20:02.435Z,17.35
2022-08-01T09:22:39.622Z,18.52
2022-08-01T09:25:14.783Z,19.70
2022-08-01T09:27:49.277Z,19.45
2022-08-01T09:30:26.238Z,18.77
2022-08-01T09:33:06.418Z,20.83
2022-08-01T09:36:01.484Z,25.33
2022-08-01T09:38:35.230Z,19.20
2022-08-01T09:41:09.757Z,18.67
2022-08-01T09:43:54.813Z,19.17
2022-08-01T09:46:29.067Z,19.33
2022-08-01T09:49:07.441Z,18.85
2022-08-01T09:52:00.113Z,18.30
2022-08-01T09:54:36.181Z,18.17
2022-08-01T09:57:18.478Z,17.67
2022-08-01T09:59:58.808Z,19.17
2022-08-01T10:02:36.655Z,20.65
2022-08-01T10:05:21.123Z,18.77
2022-08-01T10:08:08.229Z,20.55
2022-08-01T10:10:42.055Z,20.65
2022-08-01T10:13:20.214Z,23.63
2022-08-01T10:15:58.693Z,18.75
2022-08-01T10:18:33.130Z,18.05
2022-08-01T10:21:10.796Z,19.08
2022-08-01T10:23:47.496Z,18.73
2022-08-01T10:26:25.092Z,18.25
2022-08-01T10:29:02.309Z,17.55
2022-08-01T10:31:37.426Z,17.85
2022-08-01T10:34:12.197Z,18.15
2022-08-01T10:36:46.971Z,18.08
2022-08-01T10:39:24.156Z,18.00
2022-08-01T10:42:00.325Z,17.80
2022-08-01T10:44:35.349Z,17.70
2022-08-01T10:47:16.154Z,17.23
2022-08-01T10:49:58.644Z,18.15
2022-08-01T10:52:39.150Z,17.05
2022-08-01T10:55:15.596Z,18.08
2022-08-01T10:57:53.021Z,17.27
2022-08-01T11:00:27.124Z,17.15
2022-08-01T11:03:05.527Z,16.65
2022-08-01T11:05:42.896Z,16.40
2022-08-01T11:08:28.428Z,15.60
2022-08-01T11:11:09.565Z,15.88
2022-08-01T11:14:14.108Z,16.02
2022-08-01T11:16:49.981Z,16.58
2022-08-01T11:19:23.846Z,15.77
2022-08-01T11:22:08.183Z,16.17
2022-08-01T11:25:02.542Z,15.18
2022-08-01T11:27:39.167Z,15.75
2022-08-01T11:30:30.454Z,15.38
2022-08-01T11:33:10.744Z,16.13
2022-08-01T11:36:31.979Z,15.65
2022-08-01T11:39:24.536Z,15.60
2022-08-01T11:41:59.136Z,16.10
2022-08-01T11:44:52.108Z,16.80
2022-08-01T11:47:49.759Z,15.67
2022-08-01T11:50:41.357Z,16.10
2022-08-01T11:53:17.196Z,15.20
2022-08-01T11:55:57.213Z,16.07
2022-08-01T11:58:34.486Z,16.03
2022-08-01T12:01:24.657Z,15.57
2022-08-01T12:04:02.673Z,16.07
2022-08-01T12:06:36.848Z,15.87
2022-08-01T12:09:25.531Z,15.70
2022-08-01T12:11:59.505Z,15.07
2022-08-01T12:14:36.677Z,15.40
2022-08-01T12:17:12.798Z,15.30
2022-08-01T12:19:47.311Z,15.67
2022-08-01T12:22:21.293Z,14.93
2022-08-01T12:24:54.701Z,15.70
2022-08-01T12:27:33.056Z,15.80
2022-08-01T12:30:10.048Z,15.10
2022-08-01T12:32:47.112Z,15.20
2022-08-01T12:35:22.229Z,14.70
2022-08-01T12:37:57.921Z,15.33
2022-08-01T12:40:32.442Z,15.95
2022-08-01T12:43:07.403Z,18.40
2022-08-01T12:45:56.963Z,16.77
2022-08-01T12:48:37.442Z,16.30
2022-08-01T12:51:12.304Z,15.93
2022-08-01T12:53:45.619Z,15.55
2022-08-01T12:56:19.804Z,15.38
2022-08-01T12:58:55.979Z,17.13
2022-08-01T13:01:33.815Z,17.20
2022-08-01T13:04:10.110Z,19.37
2022-08-01T13:06:44.176Z,19.67
2022-08-01T13:09:20.470Z,17.27
2022-08-01T13:12:10.947Z,19.03
2022-08-01T13:14:47.148Z,19.10
2022-08-01T13:17:37.764Z,18.23
2022-08-01T13:20:14.654Z,20.20
2022-08-01T13:22:47.881Z,19.63
2022-08-01T13:25:26.893Z,19.37
2022-08-01T13:28:22.081Z,18.30
2022-08-01T13:31:00.965Z,18.70
2022-08-01T13:33:45.671Z,18.70
2022-08-01T13:36:31.804Z,18.90
2022-08-01T13:39:49.599Z,18.30
2022-08-01T13:42:25.873Z,17.83
2022-08-01T13:45:00.023Z,17.30
2022-08-01T13:47:33.394Z,17.93
2022-08-01T13:50:09.145Z,17.10
2022-08-01T13:52:46.304Z,16.63
2022-08-01T13:55:34.980Z,16.37
2022-08-01T13:58:10.421Z,16.77
2022-08-01T14:00:44.012Z,16.67
2022-08-01T14:03:19.236Z,17.83
2022-08-01T14:05:58.532Z,15.10
2022-08-01T14:09:17.317Z,16.37
2022-08-01T14:11:52.107Z,17.00
2022-08-01T14:14:26.204Z,17.17
2022-08-01T14:17:05.295Z,16.90
2022-08-01T14:19:42.268Z,16.87
2022-08-01T14:22:20.018Z,16.10
2022-08-01T14:25:00.821Z,16.73
2022-08-01T14:27:39.268Z,16.87
2022-08-01T14:30:14.806Z,16.53
2022-08-01T14:32:50.605Z,17.83
2022-08-01T14:35:24.953Z,16.23
2022-08-01T14:38:00.692Z,16.50
2022-08-01T14:40:37.994Z,18.17
2022-08-01T14:43:24.957Z,16.53
2022-08-01T14:46:02.102Z,16.30
2022-08-01T14:48:36.825Z,16.73
2022-08-01T14:51:11.754Z,16.60
2022-08-01T14:53:50.767Z,16.77
2022-08-01T14:56:27.103Z,16.90
2022-08-01T14:59:01.953Z,17.17
2022-08-01T15:01:37.129Z,16.30
2022-08-01T15:04:11.408Z,16.43
2022-08-01T15:06:47.803Z,14.63
2022-08-01T15:09:22.361Z,16.67
2022-08-01T15:11:58.322Z,15.87
2022-08-01T15:14:47.948Z,16.20
2022-08-01T15:17:23.389Z,16.97
2022-08-01T15:19:59.650Z,17.33
2022-08-01T15:22:34.216Z,20.40
2022-08-01T15:25:08.550Z,20.17
2022-08-01T15:27:45.496Z,19.70
2022-08-01T15:30:23.353Z,20.13
2022-08-01T15:33:01.649Z,20.90
2022-08-01T15:35:35.897Z,20.17
2022-08-01T15:38:10.941Z,21.20
2022-08-01T15:40:44.757Z,21.40
2022-08-01T15:43:21.060Z,21.83
2022-08-01T15:45:55.937Z,22.07
2022-08-01T15:48:29.902Z,22.57
2022-08-01T15:51:04.694Z,21.93
2022-08-01T15:53:40.037Z,22.10
2022-08-01T15:56:14.590Z,23.43
2022-08-01T15:58:50.418Z,22.87
2022-08-01T16:01:25.587Z,23.17
2022-08-01T16:04:00.496Z,23.30
2022-08-01T16:06:34.514Z,22.37
2022-08-01T16:09:18.347Z,23.00
2022-08-01T16:11:53.605Z,20.00
2022-08-01T16:14:29.478Z,23.27
2022-08-01T16:17:04.092Z,21.87
2022-08-01T16:19:38.654Z,20.80
2022-08-01T16:22:12.564Z,21.90
2022-08-01T16:24:47.608Z,21.87
2022-08-01T16:27:26.859Z,21.83
2022-08-01T16:30:03.457Z,23.90
2022-08-01T16:32:39.751Z,22.23
2022-08-01T16:35:22.034Z,21.60
2022-08-01T16:37:58.542Z,22.17
2022-08-01T16:40:46.253Z,21.63
2022-08-01T16:43:21.543Z,21.47
2022-08-01T16:45:58.365Z,22.03
2022-08-01T16:48:32.447Z,21.47
2022-08-01T16:51:06.357Z,21.43
2022-08-01T16:53:40.345Z,20.80
2022-08-01T16:56:13.806Z,20.27
2022-08-01T16:58:47.900Z,20.60
2022-08-01T17:02:00.135Z,20.70
2022-08-01T17:04:19.929Z,21.53
2022-08-01T17:06:54.066Z,21.90
2022-08-01T17:09:31.292Z,19.47
2022-08-01T17:12:05.108Z,20.37
2022-08-01T17:14:53.801Z,20.33
2022-08-01T17:17:29.672Z,18.67
2022-08-01T17:20:04.080Z,19.00
2022-08-01T17:22:38.220Z,19.13
2022-08-01T17:25:15.942Z,19.13
2022-08-01T17:28:04.681Z,18.57
2022-08-01T17:30:58.521Z,17.77
2022-08-01T17:33:44.644Z,18.77
2022-08-01T17:36:22.716Z,18.10
2022-08-01T17:39:01.116Z,18.07
2022-08-01T17:41:34.936Z,19.10
2022-08-01T17:44:09.298Z,18.43
2022-08-01T17:46:42.581Z,18.77
2022-08-01T17:49:33.380Z,18.97
2022-08-01T17:52:11.599Z,16.37
2022-08-01T17:54:45.707Z,17.77
2022-08-01T17:57:19.553Z,16.87
2022-08-01T17:59:54.092Z,16.23
2022-08-01T18:02:28.244Z,17.33
2022-08-01T18:08:06.263Z,16.13
2022-08-01T18:10:40.336Z,16.53
2022-08-01T18:13:17.818Z,17.53
2022-08-01T18:15:54.769Z,17.93
2022-08-01T18:18:33.600Z,19.87
2022-08-01T18:21:11.372Z,22.43
2022-08-01T18:23:51.405Z,22.23
2022-08-01T18:26:26.745Z,22.63
2022-08-01T18:29:00.003Z,22.27
2022-08-01T18:31:33.529Z,21.87
2022-08-01T18:34:07.517Z,22.30
2022-08-01T18:36:44.127Z,21.67
2022-08-01T18:39:18.057Z,23.13
2022-08-01T18:41:52.181Z,23.87
2022-08-01T18:44:26.638Z,24.40
2022-08-01T18:47:03.565Z,24.80
2022-08-01T18:49:37.337Z,24.80
2022-08-01T18:52:13.380Z,26.00
2022-08-01T18:54:47.117Z,26.10
2022-08-01T18:57:20.950Z,26.03
2022-08-01T19:00:03.598Z,26.83
2022-08-01T19:02:37.304Z,26.67
2022-08-01T19:05:11.613Z,26.03
2022-08-01T19:08:06.299Z,25.67
2022-08-01T19:10:43.392Z,24.23
2022-08-01T19:13:41.578Z,22.90
2022-08-01T19:16:19.351Z,24.60
2022-08-01T19:18:54.325Z,23.53
2022-08-01T19:21:28.427Z,23.93
2022-08-01T19:24:23.463Z,23.57
2022-08-01T19:26:58.640Z,25.07
2022-08-01T19:29:41.023Z,24.03
2022-08-01T19:32:14.471Z,24.30
2022-08-01T19:34:52.913Z,23.77
2022-08-01T19:37:27.479Z,22.63
2022-08-01T19:40:03.234Z,24.07
2022-08-01T19:42:36.774Z,23.97
2022-08-01T19:45:10.642Z,23.57
2022-08-01T19:47:51.839Z,24.23
2022-08-01T19:50:32.251Z,23.73
2022-08-01T19:53:08.029Z,23.60
2022-08-01T19:55:47.515Z,25.60
2022-08-01T19:58:27.313Z,22.70
2022-08-01T20:01:02.578Z,22.47
2022-08-01T20:03:39.193Z,22.23
2022-08-01T20:06:12.768Z,20.13
2022-08-01T20:08:54.874Z,22.27
2022-08-01T20:11:30.736Z,23.80
2022-08-01T20:14:04.768Z,22.13
2022-08-01T20:16:39.945Z,23.00
2022-08-01T20:19:13.620Z,20.20
2022-08-01T20:22:03.724Z,19.33
2022-08-01T20:24:46.295Z,18.60
2022-08-01T20:27:22.868Z,19.67
2022-08-01T20:29:57.568Z,20.43
2022-08-01T20:32:34.992Z,20.87
2022-08-01T20:35:09.653Z,22.07
2022-08-01T20:38:05.672Z,22.03
2022-08-01T20:40:41.391Z,22.60
2022-08-01T20:43:17.611Z,22.57
2022-08-01T20:45:51.646Z,22.73
2022-08-01T20:48:25.943Z,20.23
2022-08-01T20:51:15.815Z,18.80
2022-08-01T20:53:54.252Z,18.67
2022-08-01T20:56:49.985Z,16.13
2022-08-01T20:59:39.756Z,17.30
2022-08-01T21:02:40.408Z,19.77
2022-08-01T21:05:16.001Z,22.07
2022-08-01T21:07:55.595Z,25.70
2022-08-01T21:10:30.679Z,24.57
2022-08-01T21:13:07.371Z,19.87
2022-08-01T21:16:11.121Z,19.20
2022-08-01T21:18:58.072Z,17.43
2022-08-01T21:21:39.904Z,17.83
2022-08-01T21:24:21.369Z,16.73
2022-08-01T21:26:55.703Z,15.93
2022-08-01T21:29:33.050Z,15.50
2022-08-01T21:32:17.606Z,15.13
2022-08-01T21:34:51.676Z,15.40
2022-08-01T21:37:25.149Z,15.03
2022-08-01T21:39:58.998Z,15.23
2022-08-01T21:42:33.824Z,14.40
2022-08-01T21:45:08.520Z,13.77
2022-08-01T21:47:44.525Z,14.50
2022-08-01T21:50:18.483Z,18.23
2022-08-01T21:52:58.471Z,14.00
2022-08-01T21:55:48.530Z,13.80
2022-08-01T21:58:36.190Z,14.37
2022-08-01T22:01:15.237Z,13.50
2022-08-01T22:03:51.667Z,13.73
2022-08-01T22:06:27.419Z,14.23
2022-08-01T22:09:04.604Z,14.57
2022-08-01T22:11:58.874Z,13.40
2022-08-01T22:14:37.094Z,16.10
2022-08-01T22:17:11.554Z,15.77
2022-08-01T22:19:51.919Z,14.83
2022-08-01T22:22:50.936Z,16.27
2022-08-01T22:25:23.298Z,16.17
2022-08-01T22:28:09.957Z,16.03
2022-08-01T22:30:46.347Z,19.47
2022-08-01T22:33:20.726Z,17.40
2022-08-01T22:35:58.610Z,14.53
2022-08-01T22:38:32.727Z,13.77
2022-08-01T22:41:07.922Z,14.77
2022-08-01T22:43:48.677Z,15.03
2022-08-01T22:46:29.885Z,13.70
2022-08-01T22:49:11.386Z,13.50
2022-08-01T22:51:56.189Z,13.60
2022-08-01T22:54:39.170Z,15.63
2022-08-01T22:57:24.707Z,15.13
2022-08-01T23:00:04.123Z,14.10
2022-08-01T23:02:40.867Z,14.97
2022-08-01T23:08:18.301Z,14.80
2022-08-01T23:10:52.510Z,15.13
2022-08-01T23:13:26.533Z,14.00
2022-08-01T23:16:00.608Z,14.33
2022-08-01T23:18:44.696Z,13.93
2022-08-01T23:21:22.855Z,15.23
2022-08-01T23:24:00.835Z,14.50
2022-08-01T23:26:36.045Z,15.17
2022-08-01T23:29:09.573Z,14.60
2022-08-01T23:32:00.375Z,14.23
2022-08-01T23:34:37.305Z,14.63
2022-08-01T23:37:11.556Z,14.97
2022-08-01T23:39:47.896Z,13.77
2022-08-01T23:42:22.202Z,15.37
2022-08-01T23:44:57.130Z,14.83
2022-08-01T23:47:31.355Z,14.80
2022-08-01T23:50:05.193Z,13.87
2022-08-01T23:52:48.298Z,15.10
2022-08-01T23:55:36.973Z,14.13
2022-08-01T23:58:11.606Z,14.33
